createdAt,value
2022-10-17T00:00:48.026Z,19.60
2022-10-17T00:03:37.047Z,19.60
2022-10-17T00:06:25.396Z,19.60
2022-10-17T00:09:13.792Z,19.50
2022-10-17T00:12:02.647Z,19.50
2022-10-17T00:14:51.017Z,19.50
2022-10-17T00:17:41.925Z,19.50
2022-10-17T00:20:50.997Z,19.50
2022-10-17T00:23:39.385Z,19.50
2022-10-17T00:26:28.500Z,19.40
2022-10-17T00:29:16.865Z,19.40
2022-10-17T00:32:05.626Z,19.40
2022-10-17T00:34:55.336Z,19.40
2022-10-17T00:37:43.700Z,19.40
2022-10-17T00:40:32.171Z,19.40
2022-10-17T00:43:20.515Z,19.40
2022-10-17T00:46:09.318Z,19.30
2022-10-17T00:48:59.964Z,19.30
2022-10-17T00:51:52.032Z,19.30
2022-10-17T00:54:45.501Z,19.30
2022-10-17T00:57:33.916Z,19.30
2022-10-17T01:00:22.719Z,19.30
2022-10-17T01:03:11.143Z,19.20
2022-10-17T01:05:59.491Z,19.30
2022-10-17T01:08:49.230Z,19.20
2022-10-17T01:11:40.998Z,19.20
2022-10-17T01:14:32.232Z,19.20
2022-10-17T01:17:25.464Z,19.20
2022-10-17T01:20:49.550Z,19.20
2022-10-17T01:24:24.553Z,19.20
2022-10-17T01:27:48.177Z,19.00
2022-10-17T01:31:06.461Z,19.10
2022-10-17T01:34:00.262Z,19.10
2022-10-17T01:36:52.488Z,19.10
2022-10-17T01:39:45.532Z,19.10
2022-10-17T01:42:38.078Z,19.10
2022-10-17T01:45:29.337Z,19.10
2022-10-17T01:48:22.799Z,19.10
2022-10-17T01:51:14.594Z,19.00
2022-10-17T01:54:05.370Z,19.00
2022-10-17T01:56:56.396Z,19.00
2022-10-17T01:59:47.430Z,18.90
2022-10-17T02:02:35.955Z,18.90
2022-10-17T02:05:27.612Z,18.90
2022-10-17T02:08:25.493Z,18.90
2022-10-17T02:11:16.159Z,18.80
2022-10-17T02:14:15.585Z,18.80
2022-10-17T02:17:10.491Z,18.80
2022-10-17T02:20:03.463Z,18.80
2022-10-17T02:22:57.217Z,18.80
2022-10-17T02:25:51.148Z,18.80
2022-10-17T02:28:43.432Z,18.70
2022-10-17T02:31:34.518Z,18.70
2022-10-17T02:34:25.525Z,18.70
2022-10-17T02:37:16.380Z,18.70
2022-10-17T02:40:07.446Z,18.70
2022-10-17T02:42:59.934Z,18.70
2022-10-17T02:45:48.324Z,18.70
2022-10-17T02:48:38.384Z,18.70
2022-10-17T02:51:33.022Z,18.70
2022-10-17T02:54:23.381Z,18.70
2022-10-17T02:57:16.765Z,18.70
2022-10-17T03:00:07.338Z,18.70
2022-10-17T03:02:55.869Z,18.70
2022-10-17T03:05:44.264Z,18.70
2022-10-17T03:08:32.711Z,18.70
2022-10-17T03:11:21.999Z,18.70
2022-10-17T03:14:13.462Z,18.70
2022-10-17T03:17:02.539Z,18.70
2022-10-17T03:19:50.907Z,18.80
2022-10-17T03:22:39.309Z,18.80
2022-10-17T03:25:28.044Z,18.80
2022-10-17T03:28:16.392Z,18.80
2022-10-17T03:31:10.153Z,18.80
2022-10-17T03:33:59.796Z,18.80
2022-10-17T03:36:48.317Z,18.80
2022-10-17T03:39:37.060Z,18.80
2022-10-17T03:42:25.520Z,18.80
2022-10-17T03:45:14.001Z,18.80
2022-10-17T03:48:05.912Z,18.80
2022-10-17T03:50:54.332Z,18.80
2022-10-17T03:53:42.816Z,18.70
2022-10-17T03:56:31.314Z,18.70
2022-10-17T03:59:29.334Z,18.60
2022-10-17T04:02:25.065Z,18.60
2022-10-17T04:05:15.387Z,18.60
2022-10-17T04:08:04.817Z,18.60
2022-10-17T04:11:14.603Z,18.60
2022-10-17T04:14:03.974Z,18.60
2022-10-17T04:16:53.437Z,18.50
2022-10-17T04:19:42.823Z,18.50
2022-10-17T04:22:32.586Z,18.50
2022-10-17T04:25:21.278Z,18.50
2022-10-17T04:28:10.442Z,18.50
2022-10-17T04:31:00.641Z,18.50
2022-10-17T04:33:54.423Z,18.50
2022-10-17T04:36:42.805Z,18.50
2022-10-17T04:39:32.995Z,18.40
2022-10-17T04:42:21.391Z,18.40
2022-10-17T04:45:11.880Z,18.40
2022-10-17T04:48:01.693Z,18.40
2022-10-17T04:50:56.306Z,18.40
2022-10-17T04:53:54.215Z,18.40
2022-10-17T04:56:44.069Z,18.40
2022-10-17T04:59:32.438Z,18.40
2022-10-17T05:02:37.359Z,18.40
2022-10-17T05:05:25.928Z,18.40
2022-10-17T05:08:15.940Z,18.40
2022-10-17T05:11:05.762Z,18.40
2022-10-17T05:13:57.137Z,18.40
2022-10-17T05:16:45.775Z,18.40
2022-10-17T05:19:34.864Z,18.30
2022-10-17T05:22:23.418Z,18.30
2022-10-17T05:25:11.902Z,18.30
2022-10-17T05:28:00.287Z,18.30
2022-10-17T05:30:50.468Z,18.20
2022-10-17T05:33:39.057Z,18.20
2022-10-17T05:36:27.553Z,18.20
2022-10-17T05:39:19.507Z,18.20
2022-10-17T05:42:09.268Z,18.20
2022-10-17T05:44:58.342Z,18.20
2022-10-17T05:47:48.805Z,18.10
2022-10-17T05:50:38.031Z,18.10
2022-10-17T05:53:32.988Z,18.10
2022-10-17T05:56:25.028Z,18.10
2022-10-17T05:59:13.718Z,18.00
2022-10-17T06:02:10.812Z,18.00
2022-10-17T06:04:45.316Z,18.00
2022-10-17T06:07:14.482Z,18.00
2022-10-17T06:12:17.767Z,18.10
2022-10-17T06:14:46.405Z,18.10
2022-10-17T06:17:16.408Z,18.10
2022-10-17T06:19:46.686Z,18.10
2022-10-17T06:22:16.311Z,18.10
2022-10-17T06:24:44.893Z,18.10
2022-10-17T06:27:13.783Z,18.20
2022-10-17T06:29:42.689Z,18.20
2022-10-17T06:32:14.952Z,18.20
2022-10-17T06:34:47.287Z,18.30
2022-10-17T06:37:16.398Z,18.30
2022-10-17T06:39:46.573Z,18.30
2022-10-17T06:42:18.281Z,18.40
2022-10-17T06:44:56.269Z,18.40
2022-10-17T06:47:38.378Z,18.50
2022-10-17T06:50:21.185Z,18.60
2022-10-17T06:52:59.866Z,18.60
2022-10-17T06:55:46.808Z,18.70
2022-10-17T06:58:22.158Z,18.70
2022-10-17T07:01:01.580Z,18.90
2022-10-17T07:03:30.050Z,19.10
2022-10-17T07:05:59.621Z,19.40
2022-10-17T07:08:29.068Z,19.70
2022-10-17T07:10:57.325Z,20.00
2022-10-17T07:13:25.712Z,20.50
2022-10-17T07:18:26.578Z,21.40
2022-10-17T07:20:55.107Z,21.80
2022-10-17T07:23:24.740Z,22.20
2022-10-17T07:25:53.324Z,22.60
2022-10-17T07:28:21.560Z,23.00
2022-10-17T07:30:52.140Z,23.20
2022-10-17T07:33:22.710Z,23.40
2022-10-17T07:35:52.541Z,23.70
2022-10-17T07:38:20.817Z,23.90
2022-10-17T07:40:56.725Z,24.10
2022-10-17T07:43:24.858Z,24.30
2022-10-17T07:45:54.522Z,24.50
2022-10-17T07:48:23.799Z,24.70
2022-10-17T07:50:52.012Z,24.90
2022-10-17T07:53:20.080Z,25.10
2022-10-17T07:55:49.581Z,25.20
2022-10-17T07:58:19.054Z,25.40
2022-10-17T08:00:48.575Z,25.50
2022-10-17T08:03:16.790Z,25.60
2022-10-17T08:05:44.998Z,25.60
2022-10-17T08:08:13.095Z,25.70
2022-10-17T08:10:41.253Z,25.80
2022-10-17T08:13:09.351Z,25.90
2022-10-17T08:15:39.753Z,26.00
2022-10-17T08:18:07.837Z,26.00
2022-10-17T08:20:35.928Z,26.00
2022-10-17T08:23:03.973Z,26.10
2022-10-17T08:25:32.574Z,26.00
2022-10-17T08:28:00.714Z,26.00
2022-10-17T08:30:30.609Z,25.90
2022-10-17T08:33:00.300Z,25.80
2022-10-17T08:35:28.385Z,25.60
2022-10-17T08:37:56.502Z,25.50
2022-10-17T08:40:26.613Z,25.40
2022-10-17T08:43:06.919Z,25.30
2022-10-17T08:45:37.142Z,25.20
2022-10-17T08:48:10.823Z,25.30
2022-10-17T08:50:41.215Z,25.40
2022-10-17T08:53:12.949Z,25.50
2022-10-17T08:55:45.316Z,25.60
2022-10-17T08:58:15.339Z,25.80
2022-10-17T09:00:47.330Z,26.00
2022-10-17T09:03:33.771Z,26.20
2022-10-17T09:06:12.286Z,26.30
2022-10-17T09:08:47.307Z,26.40
2022-10-17T09:11:22.426Z,26.60
2022-10-17T09:14:02.422Z,26.70
2022-10-17T09:16:51.171Z,26.80
2022-10-17T09:19:22.530Z,26.90
2022-10-17T09:21:53.356Z,27.00
2022-10-17T09:24:25.765Z,27.10
2022-10-17T09:26:54.002Z,27.20
2022-10-17T09:29:24.045Z,27.30
2022-10-17T09:32:00.980Z,27.30
2022-10-17T09:34:31.918Z,27.40
2022-10-17T09:37:00.735Z,27.40
2022-10-17T09:39:31.788Z,27.40
2022-10-17T09:42:01.321Z,27.50
2022-10-17T09:44:32.180Z,27.50
2022-10-17T09:47:17.867Z,27.60
2022-10-17T09:49:48.394Z,27.70
2022-10-17T09:52:18.938Z,27.70
2022-10-17T09:54:48.164Z,27.80
2022-10-17T09:57:17.693Z,27.80
2022-10-17T09:59:47.291Z,27.80
2022-10-17T10:02:21.554Z,27.90
2022-10-17T10:05:04.291Z,27.90
2022-10-17T10:07:35.069Z,28.00
2022-10-17T10:10:03.850Z,28.00
2022-10-17T10:12:33.483Z,28.00
2022-10-17T10:15:01.678Z,27.90
2022-10-17T10:17:36.764Z,27.90
2022-10-17T10:20:28.470Z,27.80
2022-10-17T10:23:17.233Z,27.90
2022-10-17T10:25:56.642Z,27.90
2022-10-17T10:28:27.829Z,28.10
2022-10-17T10:30:56.423Z,28.10
2022-10-17T10:33:27.225Z,28.20
2022-10-17T10:35:59.354Z,28.30
2022-10-17T10:38:27.451Z,28.40
2022-10-17T10:40:56.725Z,28.50
2022-10-17T10:43:30.668Z,28.60
2022-10-17T10:45:59.113Z,28.70
2022-10-17T10:48:28.598Z,28.80
2022-10-17T10:51:00.232Z,28.80
2022-10-17T10:53:38.108Z,28.90
2022-10-17T10:56:10.778Z,28.90
2022-10-17T10:58:49.597Z,29.00
2022-10-17T11:01:22.718Z,29.10
2022-10-17T11:04:00.856Z,29.10
2022-10-17T11:06:32.406Z,29.20
2022-10-17T11:09:15.013Z,29.30
2022-10-17T11:11:45.657Z,29.40
2022-10-17T11:14:17.319Z,29.50
2022-10-17T11:16:48.629Z,29.60
2022-10-17T11:19:21.530Z,29.70
2022-10-17T11:22:06.495Z,29.80
2022-10-17T11:24:38.146Z,29.80
2022-10-17T11:27:07.223Z,29.90
2022-10-17T11:29:38.142Z,30.00
2022-10-17T11:32:09.047Z,30.00
2022-10-17T11:34:40.731Z,30.10
2022-10-17T11:37:15.234Z,30.00
2022-10-17T11:39:48.721Z,30.00
2022-10-17T11:42:20.422Z,29.90
2022-10-17T11:44:48.484Z,29.70
2022-10-17T11:47:28.722Z,29.70
2022-10-17T11:52:57.338Z,29.70
2022-10-17T11:55:26.871Z,29.60
2022-10-17T11:58:12.207Z,29.60
2022-10-17T12:00:51.411Z,29.60
2022-10-17T12:03:30.444Z,29.60
2022-10-17T12:06:01.324Z,29.60
2022-10-17T12:08:35.036Z,29.60
2022-10-17T12:11:11.322Z,29.70
2022-10-17T12:13:54.525Z,29.70
2022-10-17T12:16:47.942Z,29.80
2022-10-17T12:19:43.089Z,29.80
2022-10-17T12:22:23.502Z,29.80
2022-10-17T12:25:01.473Z,29.80
2022-10-17T12:27:43.473Z,29.80
2022-10-17T12:30:25.539Z,29.90
2022-10-17T12:33:22.189Z,30.00
2022-10-17T12:35:51.155Z,30.10
2022-10-17T12:38:27.944Z,30.10
2022-10-17T12:41:06.210Z,30.20
2022-10-17T12:43:48.337Z,30.10
2022-10-17T12:46:58.141Z,30.10
2022-10-17T12:49:43.320Z,30.20
2022-10-17T12:52:53.843Z,30.20
2022-10-17T12:55:25.167Z,30.30
2022-10-17T12:57:58.567Z,30.20
2022-10-17T13:00:33.087Z,30.20
2022-10-17T13:03:07.287Z,30.10
2022-10-17T13:05:37.018Z,30.10
2022-10-17T13:08:06.853Z,30.00
2022-10-17T13:10:36.205Z,30.00
2022-10-17T13:13:20.036Z,29.90
2022-10-17T13:15:48.956Z,29.90
2022-10-17T13:18:22.229Z,29.90
2022-10-17T13:21:01.545Z,30.00
2022-10-17T13:23:33.084Z,30.00
2022-10-17T13:26:14.244Z,30.00
2022-10-17T13:28:43.943Z,30.10
2022-10-17T13:31:32.137Z,30.10
2022-10-17T13:34:01.686Z,30.20
2022-10-17T13:36:30.894Z,30.30
2022-10-17T13:38:59.784Z,30.40
2022-10-17T13:41:37.061Z,30.40
2022-10-17T13:44:12.972Z,30.50
2022-10-17T13:46:41.302Z,30.50
2022-10-17T13:49:25.726Z,30.50
2022-10-17T13:51:56.015Z,30.50
2022-10-17T13:54:38.029Z,30.50
2022-10-17T13:57:06.380Z,30.50
2022-10-17T13:59:40.469Z,30.50
2022-10-17T14:02:14.543Z,30.50
2022-10-17T14:05:15.027Z,30.50
2022-10-17T14:07:58.183Z,30.40
2022-10-17T14:10:26.122Z,30.40
2022-10-17T14:12:54.678Z,30.30
2022-10-17T14:15:27.505Z,30.30
2022-10-17T14:17:56.258Z,30.30
2022-10-17T14:21:07.739Z,30.20
2022-10-17T14:23:32.027Z,30.20
2022-10-17T14:26:12.332Z,30.10
2022-10-17T14:28:41.128Z,30.20
2022-10-17T14:31:30.596Z,30.20
2022-10-17T14:33:58.629Z,30.20
2022-10-17T14:36:38.708Z,30.30
2022-10-17T14:39:13.293Z,30.30
2022-10-17T14:41:44.589Z,30.30
2022-10-17T14:44:21.657Z,30.30
2022-10-17T14:46:55.281Z,30.30
2022-10-17T14:49:33.394Z,30.30
2022-10-17T14:52:31.411Z,30.30
2022-10-17T14:55:00.659Z,30.20
2022-10-17T14:57:41.997Z,30.20
2022-10-17T15:00:14.932Z,30.10
2022-10-17T15:02:44.772Z,30.10
2022-10-17T15:05:13.612Z,30.00
2022-10-17T15:07:42.110Z,29.90
2022-10-17T15:10:25.277Z,29.90
2022-10-17T15:12:59.299Z,29.80
2022-10-17T15:15:38.444Z,29.80
2022-10-17T15:18:08.357Z,29.70
2022-10-17T15:20:36.613Z,29.60
2022-10-17T15:23:04.927Z,29.50
2022-10-17T15:25:34.226Z,29.40
2022-10-17T15:28:02.314Z,29.20
2022-10-17T15:30:32.015Z,29.10
2022-10-17T15:33:00.274Z,28.90
2022-10-17T15:35:29.686Z,28.70
2022-10-17T15:37:57.834Z,28.50
2022-10-17T15:40:28.125Z,28.40
2022-10-17T15:42:57.123Z,28.20
2022-10-17T15:45:25.206Z,28.10
2022-10-17T15:47:54.835Z,27.90
2022-10-17T15:50:22.938Z,27.80
2022-10-17T15:52:52.335Z,27.70
2022-10-17T15:55:20.634Z,27.60
2022-10-17T15:57:49.101Z,27.50
2022-10-17T16:00:18.722Z,27.40
2022-10-17T16:02:47.066Z,27.30
2022-10-17T16:05:17.051Z,27.10
2022-10-17T16:07:46.162Z,27.00
2022-10-17T16:10:15.792Z,26.90
2022-10-17T16:12:44.020Z,26.80
2022-10-17T16:15:14.855Z,26.60
2022-10-17T16:17:43.811Z,26.50
2022-10-17T16:20:13.205Z,26.30
2022-10-17T16:22:42.092Z,26.10
2022-10-17T16:25:19.493Z,25.80
2022-10-17T16:27:48.155Z,25.60
2022-10-17T16:30:16.435Z,25.40
2022-10-17T16:32:44.715Z,25.20
2022-10-17T16:35:13.162Z,25.00
2022-10-17T16:37:41.274Z,24.80
2022-10-17T16:40:10.950Z,24.60
2022-10-17T16:42:40.374Z,24.40
2022-10-17T16:45:16.783Z,24.20
2022-10-17T16:47:44.913Z,24.10
2022-10-17T16:50:13.022Z,24.00
2022-10-17T16:52:41.074Z,23.80
2022-10-17T16:55:10.821Z,23.70
2022-10-17T16:57:40.235Z,23.60
2022-10-17T17:00:12.692Z,23.50
2022-10-17T17:02:40.856Z,23.30
2022-10-17T17:05:09.731Z,23.20
2022-10-17T17:07:37.859Z,23.10
2022-10-17T17:10:07.202Z,23.00
2022-10-17T17:12:35.352Z,22.90
2022-10-17T17:15:05.387Z,22.80
2022-10-17T17:17:48.695Z,22.70
2022-10-17T17:20:18.525Z,22.70
2022-10-17T17:22:46.570Z,22.50
2022-10-17T17:25:14.704Z,22.50
2022-10-17T17:27:42.723Z,22.40
2022-10-17T17:30:12.837Z,22.30
2022-10-17T17:32:41.000Z,22.30
2022-10-17T17:35:10.377Z,22.20
2022-10-17T17:37:38.486Z,22.10
2022-10-17T17:40:08.342Z,22.10
2022-10-17T17:42:36.399Z,22.00
2022-10-17T17:45:05.730Z,22.00
2022-10-17T17:47:35.107Z,21.90
2022-10-17T17:50:03.584Z,21.90
2022-10-17T17:52:31.813Z,21.80
2022-10-17T17:55:00.093Z,21.80
2022-10-17T17:57:30.269Z,21.70
2022-10-17T17:59:58.279Z,21.70
2022-10-17T18:02:26.398Z,21.60
2022-10-17T18:04:55.800Z,21.60
2022-10-17T18:07:24.099Z,21.60
2022-10-17T18:09:52.145Z,21.60
2022-10-17T18:12:20.239Z,21.50
2022-10-17T18:14:49.252Z,21.50
2022-10-17T18:17:17.264Z,21.50
2022-10-17T18:19:45.566Z,21.50
2022-10-17T18:22:15.038Z,21.50
2022-10-17T18:24:43.243Z,21.50
2022-10-17T18:27:12.682Z,21.50
2022-10-17T18:29:41.016Z,21.50
2022-10-17T18:32:09.120Z,21.50
2022-10-17T18:34:37.240Z,21.50
2022-10-17T18:37:05.406Z,21.50
2022-10-17T18:39:34.891Z,21.50
2022-10-17T18:42:03.059Z,21.50
2022-10-17T18:44:31.202Z,21.50
2022-10-17T18:47:03.051Z,21.40
2022-10-17T18:49:32.517Z,21.40
2022-10-17T18:52:00.658Z,21.40
2022-10-17T18:54:29.288Z,21.40
2022-10-17T18:56:58.724Z,21.40
2022-10-17T18:59:26.850Z,21.40
2022-10-17T19:01:55.093Z,21.40
2022-10-17T19:04:23.244Z,21.40
2022-10-17T19:06:51.325Z,21.40
2022-10-17T19:09:19.401Z,21.40
2022-10-17T19:11:47.490Z,21.40
2022-10-17T19:14:17.000Z,21.40
2022-10-17T19:16:46.827Z,21.40
2022-10-17T19:19:16.626Z,21.40
2022-10-17T19:21:44.886Z,21.30
2022-10-17T19:24:17.592Z,21.40
2022-10-17T19:26:46.561Z,21.40
2022-10-17T19:29:16.924Z,21.30
2022-10-17T19:31:45.363Z,21.30
2022-10-17T19:34:13.625Z,21.40
2022-10-17T19:36:41.948Z,21.30
2022-10-17T19:39:12.894Z,21.30
2022-10-17T19:41:41.444Z,21.30
2022-10-17T19:44:09.700Z,21.30
2022-10-17T19:46:39.344Z,21.30
2022-10-17T19:49:07.747Z,21.30
2022-10-17T19:51:35.849Z,21.30
2022-10-17T19:54:04.031Z,21.30
2022-10-17T19:56:33.622Z,21.30
2022-10-17T19:59:01.811Z,21.30
2022-10-17T20:01:31.295Z,21.30
2022-10-17T20:04:21.876Z,21.20
2022-10-17T20:07:10.254Z,21.20
2022-10-17T20:09:58.568Z,21.20
2022-10-17T20:12:46.908Z,21.20
2022-10-17T20:15:35.300Z,21.20
2022-10-17T20:18:23.649Z,21.20
2022-10-17T20:21:17.737Z,21.10
2022-10-17T20:24:07.773Z,21.10
2022-10-17T20:26:56.141Z,21.20
2022-10-17T20:29:44.530Z,21.20
2022-10-17T20:32:39.591Z,21.20
2022-10-17T20:35:28.205Z,21.20
2022-10-17T20:38:17.972Z,21.30
2022-10-17T20:41:07.919Z,21.30
2022-10-17T20:43:56.583Z,21.40
2022-10-17T20:47:00.319Z,21.40
2022-10-17T20:49:49.926Z,21.40
2022-10-17T20:52:38.290Z,21.40
2022-10-17T20:55:27.981Z,21.40
2022-10-17T20:58:16.351Z,21.40
2022-10-17T21:01:08.933Z,21.40
2022-10-17T21:04:05.108Z,21.40
2022-10-17T21:06:59.424Z,21.30
2022-10-17T21:09:47.826Z,21.40
2022-10-17T21:12:53.160Z,21.30
2022-10-17T21:15:42.551Z,21.30
2022-10-17T21:18:30.978Z,21.30
2022-10-17T21:21:20.708Z,21.30
2022-10-17T21:24:12.872Z,21.30
2022-10-17T21:27:01.199Z,21.40
2022-10-17T21:29:51.946Z,21.40
2022-10-17T21:32:51.395Z,21.40
2022-10-17T21:35:40.119Z,21.40
2022-10-17T21:38:28.447Z,21.40
2022-10-17T21:41:19.386Z,21.50
2022-10-17T21:44:11.940Z,21.40
2022-10-17T21:47:01.689Z,21.40
2022-10-17T21:49:50.002Z,21.40
2022-10-17T21:52:38.452Z,21.40
2022-10-17T21:55:26.780Z,21.30
2022-10-17T21:58:15.181Z,21.30
2022-10-17T22:01:08.667Z,21.30
2022-10-17T22:04:00.260Z,21.20
2022-10-17T22:06:50.988Z,21.20
2022-10-17T22:09:39.429Z,21.20
2022-10-17T22:12:28.086Z,21.10
2022-10-17T22:15:16.833Z,21.10
2022-10-17T22:18:05.315Z,21.00
2022-10-17T22:20:55.044Z,21.00
2022-10-17T22:23:43.893Z,20.90
2022-10-17T22:26:33.402Z,20.90
2022-10-17T22:29:21.993Z,20.80
2022-10-17T22:32:10.330Z,20.80
2022-10-17T22:34:58.681Z,20.80
2022-10-17T22:37:48.403Z,20.70
2022-10-17T22:40:36.810Z,20.70
2022-10-17T22:43:25.177Z,20.60
2022-10-17T22:46:16.047Z,20.60
2022-10-17T22:49:04.435Z,20.60
2022-10-17T22:51:53.022Z,20.60
2022-10-17T22:54:42.733Z,20.60
2022-10-17T22:57:31.092Z,20.60
2022-10-17T23:00:19.674Z,20.60
2022-10-17T23:03:08.080Z,20.60
2022-10-17T23:05:56.626Z,20.60
2022-10-17T23:08:45.069Z,20.60
2022-10-17T23:11:34.770Z,20.60
2022-10-17T23:14:23.137Z,20.70
2022-10-17T23:17:11.827Z,20.70
2022-10-17T23:20:00.178Z,20.70
2022-10-17T23:22:48.566Z,20.80
2022-10-17T23:25:36.927Z,20.80
2022-10-17T23:28:26.806Z,20.80
2022-10-17T23:31:16.591Z,20.90
2022-10-17T23:34:04.947Z,20.90
2022-10-17T23:36:53.416Z,20.90
2022-10-17T23:39:41.754Z,20.90
2022-10-17T23:42:30.156Z,20.90
2022-10-17T23:45:19.979Z,20.90
2022-10-17T23:48:08.351Z,20.90
2022-10-17T23:50:56.849Z,20.90
2022-10-17T23:53:45.218Z,20.90
2022-10-17T23:56:33.583Z,21.00
2022-10-17T23:59:21.887Z,21.00
